createdAt,value
2018-12-20T00:00:43.143Z,96.20
2018-12-20T00:03:13.946Z,96.00
2018-12-20T00:05:42.281Z,96.80
2018-12-20T00:08:11.643Z,96.90
2018-12-20T00:10:40.003Z,96.90
2018-12-20T00:13:08.330Z,96.80
2018-12-20T00:15:36.594Z,97.30
2018-12-20T00:18:04.892Z,96.90
2018-12-20T00:20:33.220Z,97.00
2018-12-20T00:23:01.583Z,96.90
2018-12-20T00:25:29.910Z,96.30
2018-12-20T00:27:58.357Z,96.10
2018-12-20T00:30:26.595Z,96.50
2018-12-20T00:32:54.907Z,96.80
2018-12-20T00:35:23.254Z,96.40
2018-12-20T00:37:51.595Z,96.20
2018-12-20T00:40:19.986Z,96.10
2018-12-20T00:42:48.363Z,96.50
2018-12-20T00:45:16.661Z,96.00
2018-12-20T00:47:47.404Z,95.40
2018-12-20T00:50:15.674Z,94.60
2018-12-20T00:52:44.117Z,94.90
2018-12-20T00:55:12.515Z,95.00
2018-12-20T00:57:40.798Z,94.50
2018-12-20T01:00:09.497Z,94.00
2018-12-20T01:02:37.871Z,94.20
2018-12-20T01:05:06.736Z,93.90
2018-12-20T01:07:35.022Z,93.00
2018-12-20T01:10:04.114Z,93.20
2018-12-20T01:12:32.508Z,93.90
2018-12-20T01:15:01.148Z,94.30
2018-12-20T01:17:31.468Z,94.50
2018-12-20T01:19:59.714Z,94.90
2018-12-20T01:22:28.197Z,95.10
2018-12-20T01:24:56.726Z,95.60
2018-12-20T01:27:26.182Z,95.60
2018-12-20T01:29:54.537Z,95.40
2018-12-20T01:32:23.054Z,96.00
2018-12-20T01:34:51.339Z,96.80
2018-12-20T01:37:19.744Z,96.50
2018-12-20T01:39:48.116Z,96.30
2018-12-20T01:42:16.448Z,95.80
2018-12-20T01:44:44.960Z,95.90
2018-12-20T01:47:13.285Z,96.30
2018-12-20T01:49:41.594Z,96.40
2018-12-20T01:52:09.854Z,96.10
2018-12-20T01:54:39.379Z,96.50
2018-12-20T01:57:07.628Z,96.70
2018-12-20T01:59:36.151Z,96.70
2018-12-20T02:02:04.627Z,96.70
2018-12-20T02:04:34.341Z,96.00
2018-12-20T02:07:02.674Z,96.30
2018-12-20T02:09:33.279Z,96.70
2018-12-20T02:12:01.781Z,96.30
2018-12-20T02:14:30.466Z,96.80
2018-12-20T02:16:58.863Z,96.90
2018-12-20T02:19:27.701Z,96.80
2018-12-20T02:21:57.137Z,96.90
2018-12-20T02:24:25.485Z,97.10
2018-12-20T02:26:53.869Z,96.70
2018-12-20T02:29:22.205Z,96.80
2018-12-20T02:31:50.551Z,96.60
2018-12-20T02:34:18.928Z,96.80
2018-12-20T02:36:47.288Z,97.40
2018-12-20T02:39:15.767Z,97.10
2018-12-20T02:41:45.415Z,96.60
2018-12-20T02:44:13.823Z,96.50
2018-12-20T02:46:42.338Z,96.30
2018-12-20T02:49:10.594Z,96.10
2018-12-20T02:51:39.180Z,96.10
2018-12-20T02:54:08.995Z,96.40
2018-12-20T02:56:37.372Z,96.50
2018-12-20T02:59:05.710Z,96.30
2018-12-20T03:01:34.629Z,96.20
2018-12-20T03:04:02.951Z,96.20
2018-12-20T03:06:31.803Z,96.20
2018-12-20T03:09:00.411Z,96.60
2018-12-20T03:11:29.001Z,96.50
2018-12-20T03:13:57.455Z,96.40
2018-12-20T03:16:25.799Z,96.30
2018-12-20T03:18:54.582Z,96.30
2018-12-20T03:21:23.035Z,96.20
2018-12-20T03:23:51.442Z,96.40
2018-12-20T03:26:19.792Z,96.00
2018-12-20T03:28:48.270Z,96.40
2018-12-20T03:31:17.039Z,96.50
2018-12-20T03:33:45.829Z,96.40
2018-12-20T03:36:14.258Z,96.90
2018-12-20T03:38:42.834Z,97.20
2018-12-20T03:41:11.551Z,96.70
2018-12-20T03:43:40.034Z,96.40
2018-12-20T03:46:08.902Z,96.80
2018-12-20T03:48:37.430Z,96.80
2018-12-20T03:51:05.950Z,96.80
2018-12-20T03:53:34.588Z,96.80
2018-12-20T03:56:02.904Z,97.30
2018-12-20T03:58:31.191Z,97.30
2018-12-20T04:01:00.019Z,97.30
2018-12-20T04:03:28.778Z,97.50
2018-12-20T04:05:57.373Z,97.50
2018-12-20T04:08:26.438Z,97.60
2018-12-20T04:10:54.914Z,97.30
2018-12-20T04:13:23.188Z,97.80
2018-12-20T04:15:51.703Z,98.30
2018-12-20T04:18:20.097Z,97.70
2018-12-20T04:20:48.392Z,97.50
2018-12-20T04:23:16.764Z,96.60
2018-12-20T04:25:45.726Z,96.50
2018-12-20T04:28:14.360Z,97.30
2018-12-20T04:30:42.882Z,97.90
2018-12-20T04:33:11.286Z,98.10
2018-12-20T04:35:39.733Z,97.90
2018-12-20T04:38:08.122Z,98.30
2018-12-20T04:40:36.421Z,98.40
2018-12-20T04:43:04.919Z,97.90
2018-12-20T04:45:33.508Z,97.60
2018-12-20T04:48:01.783Z,97.20
2018-12-20T04:50:30.159Z,97.40
2018-12-20T04:52:59.102Z,97.50
2018-12-20T04:55:27.635Z,97.80
2018-12-20T04:57:56.017Z,97.70
2018-12-20T05:00:24.379Z,98.00
2018-12-20T05:02:52.654Z,98.40
2018-12-20T05:05:21.198Z,98.20
2018-12-20T05:07:49.893Z,97.70
2018-12-20T05:10:19.841Z,98.40
2018-12-20T05:12:48.577Z,97.90
2018-12-20T05:15:17.381Z,97.70
2018-12-20T05:17:46.005Z,98.40
2018-12-20T05:20:14.616Z,97.70
2018-12-20T05:22:43.557Z,97.60
2018-12-20T05:25:11.906Z,97.80
2018-12-20T05:27:40.167Z,98.00
2018-12-20T05:30:08.758Z,98.00
2018-12-20T05:32:37.003Z,98.80
2018-12-20T05:35:05.403Z,98.60
2018-12-20T05:37:34.092Z,97.70
2018-12-20T05:40:03.022Z,98.80
2018-12-20T05:42:31.892Z,98.70
2018-12-20T05:45:00.509Z,99.10
2018-12-20T05:47:28.852Z,99.50
2018-12-20T05:49:57.132Z,99.90
2018-12-20T05:52:25.493Z,99.90
2018-12-20T05:54:53.891Z,99.90
2018-12-20T05:57:22.171Z,99.90
2018-12-20T05:59:51.136Z,99.90
2018-12-20T06:02:20.691Z,99.90
2018-12-20T06:04:49.072Z,99.90
2018-12-20T06:07:17.351Z,99.90
2018-12-20T06:09:45.606Z,99.90
2018-12-20T06:12:14.261Z,99.90
2018-12-20T06:14:43.113Z,99.90
2018-12-20T06:17:11.366Z,99.80
2018-12-20T06:19:39.905Z,99.10
2018-12-20T06:22:08.403Z,99.60
2018-12-20T06:24:36.752Z,98.90
2018-12-20T06:27:05.007Z,98.70
2018-12-20T06:29:33.360Z,99.20
2018-12-20T06:32:01.607Z,98.40
2018-12-20T06:34:29.991Z,98.20
2018-12-20T06:36:58.243Z,98.00
2018-12-20T06:39:26.491Z,99.10
2018-12-20T06:41:54.742Z,99.90
2018-12-20T06:44:23.509Z,99.90
2018-12-20T06:46:51.739Z,99.90
2018-12-20T06:49:20.111Z,99.90
2018-12-20T06:51:48.392Z,99.90
2018-12-20T06:54:16.647Z,99.90
2018-12-20T06:56:44.906Z,99.90
2018-12-20T06:59:13.314Z,99.90
2018-12-20T07:01:41.562Z,99.90
2018-12-20T07:04:09.929Z,99.90
2018-12-20T07:06:38.380Z,99.90
2018-12-20T07:09:07.613Z,99.90
2018-12-20T07:11:35.862Z,99.90
2018-12-20T07:14:04.554Z,99.90
2018-12-20T07:16:32.815Z,99.90
2018-12-20T07:19:01.063Z,99.90
2018-12-20T07:21:29.354Z,99.90
2018-12-20T07:23:57.619Z,99.90
2018-12-20T07:26:25.870Z,99.90
2018-12-20T07:28:54.234Z,99.90
2018-12-20T07:31:22.831Z,99.90
2018-12-20T07:33:51.090Z,99.90
2018-12-20T07:36:19.378Z,99.90
2018-12-20T07:38:47.712Z,99.90
2018-12-20T07:41:15.976Z,99.90
2018-12-20T07:43:44.250Z,99.90
2018-12-20T07:46:19.563Z,99.90
2018-12-20T07:48:47.989Z,99.90
2018-12-20T07:51:19.018Z,99.90
2018-12-20T07:53:47.267Z,99.90
2018-12-20T07:56:15.571Z,99.90
2018-12-20T07:58:45.650Z,99.90
2018-12-20T08:01:16.269Z,99.90
2018-12-20T08:03:44.576Z,99.90
2018-12-20T08:06:13.456Z,99.90
2018-12-20T08:08:42.274Z,99.90
2018-12-20T08:11:10.814Z,99.90
2018-12-20T08:13:39.068Z,99.90
2018-12-20T08:16:09.771Z,99.90
2018-12-20T08:18:38.850Z,99.80
2018-12-20T08:21:07.126Z,99.70
2018-12-20T08:23:35.400Z,99.90
2018-12-20T08:26:04.600Z,99.90
2018-12-20T08:28:32.897Z,99.90
2018-12-20T08:31:01.155Z,99.90
2018-12-20T08:33:31.157Z,99.70
2018-12-20T08:35:59.488Z,99.00
2018-12-20T08:38:27.826Z,99.20
2018-12-20T08:40:56.123Z,99.10
2018-12-20T08:43:24.371Z,99.70
2018-12-20T08:45:52.630Z,99.80
2018-12-20T08:48:20.994Z,99.90
2018-12-20T08:50:49.593Z,99.90
2018-12-20T08:53:18.844Z,99.90
2018-12-20T08:55:47.482Z,99.90
2018-12-20T08:58:15.895Z,99.90
2018-12-20T09:00:44.155Z,99.90
2018-12-20T09:03:12.935Z,99.90
2018-12-20T09:05:41.179Z,99.90
2018-12-20T09:08:09.570Z,99.90
2018-12-20T09:10:39.522Z,99.90
2018-12-20T09:13:09.724Z,99.90
2018-12-20T09:15:38.023Z,99.90
2018-12-20T09:18:06.628Z,99.90
2018-12-20T09:20:34.879Z,99.70
2018-12-20T09:23:03.215Z,99.80
2018-12-20T09:25:31.512Z,99.90
2018-12-20T09:27:59.762Z,99.90
2018-12-20T09:30:30.706Z,98.30
2018-12-20T09:32:58.288Z,97.40
2018-12-20T09:35:26.551Z,97.00
2018-12-20T09:37:54.827Z,96.00
2018-12-20T09:40:23.835Z,94.70
2018-12-20T09:42:52.090Z,95.00
2018-12-20T09:45:20.427Z,96.40
2018-12-20T09:47:55.860Z,96.70
2018-12-20T09:50:24.371Z,95.60
2018-12-20T09:52:53.822Z,94.90
2018-12-20T09:55:22.111Z,94.30
2018-12-20T09:57:50.374Z,94.30
2018-12-20T10:00:18.715Z,94.70
2018-12-20T10:02:47.232Z,94.30
2018-12-20T10:05:15.487Z,94.40
2018-12-20T10:07:43.873Z,94.10
2018-12-20T10:10:12.156Z,94.10
2018-12-20T10:12:40.415Z,94.00
2018-12-20T10:15:09.033Z,93.20
2018-12-20T10:17:37.314Z,93.30
2018-12-20T10:20:07.706Z,92.90
2018-12-20T10:22:35.983Z,94.00
2018-12-20T10:25:05.115Z,93.40
2018-12-20T10:27:33.376Z,92.50
2018-12-20T10:30:01.642Z,91.90
2018-12-20T10:32:30.055Z,91.50
2018-12-20T10:34:58.302Z,91.30
2018-12-20T10:37:26.566Z,91.50
2018-12-20T10:39:54.854Z,92.50
2018-12-20T10:42:23.118Z,92.30
2018-12-20T10:44:51.374Z,91.10
2018-12-20T10:47:28.893Z,92.20
2018-12-20T10:49:53.924Z,92.50
2018-12-20T10:52:22.193Z,90.20
2018-12-20T10:54:50.713Z,91.20
2018-12-20T10:57:19.054Z,90.60
2018-12-20T10:59:47.465Z,89.30
2018-12-20T11:02:21.540Z,89.80
2018-12-20T11:04:55.475Z,89.90
2018-12-20T11:07:29.655Z,89.90
2018-12-20T11:10:04.092Z,87.50
2018-12-20T11:12:38.490Z,87.10
2018-12-20T11:15:07.382Z,87.40
2018-12-20T11:17:37.475Z,85.90
2018-12-20T11:20:06.642Z,85.50
2018-12-20T11:22:34.991Z,85.40
2018-12-20T11:25:04.053Z,86.10
2018-12-20T11:27:32.693Z,84.20
2018-12-20T11:30:00.972Z,84.80
2018-12-20T11:32:29.319Z,85.30
2018-12-20T11:34:57.609Z,85.70
2018-12-20T11:37:25.870Z,84.50
2018-12-20T11:39:59.395Z,85.90
2018-12-20T11:42:24.497Z,86.00
2018-12-20T11:44:52.735Z,85.20
2018-12-20T11:47:27.408Z,84.70
2018-12-20T11:49:55.679Z,85.70
2018-12-20T11:52:24.033Z,85.50
2018-12-20T11:54:54.204Z,85.80
2018-12-20T11:57:22.603Z,85.90
2018-12-20T11:59:50.850Z,85.60
2018-12-20T12:02:24.459Z,83.80
2018-12-20T12:04:49.403Z,84.40
2018-12-20T12:07:17.686Z,85.70
2018-12-20T12:09:46.250Z,85.90
2018-12-20T12:12:14.542Z,85.00
2018-12-20T12:14:43.063Z,85.00
2018-12-20T12:17:11.437Z,84.20
2018-12-20T12:19:39.758Z,81.40
2018-12-20T12:22:08.502Z,80.10
2018-12-20T12:24:38.115Z,80.70
2018-12-20T12:27:06.507Z,80.90
2018-12-20T12:29:35.177Z,82.00
2018-12-20T12:32:03.760Z,82.10
2018-12-20T12:34:32.037Z,80.40
2018-12-20T12:37:00.547Z,80.90
2018-12-20T12:39:28.829Z,81.60
2018-12-20T12:41:57.086Z,80.50
2018-12-20T12:44:25.405Z,81.40
2018-12-20T12:46:53.834Z,80.80
2018-12-20T12:49:24.078Z,80.60
2018-12-20T12:51:53.225Z,78.90
2018-12-20T12:54:22.551Z,78.80
2018-12-20T12:56:50.883Z,78.70
2018-12-20T12:59:19.145Z,78.30
2018-12-20T13:01:47.435Z,79.20
2018-12-20T13:04:15.706Z,79.50
2018-12-20T13:06:44.048Z,79.40
2018-12-20T13:09:12.606Z,78.90
2018-12-20T13:11:40.834Z,78.50
2018-12-20T13:14:09.102Z,78.80
2018-12-20T13:16:39.001Z,79.00
2018-12-20T13:19:07.263Z,79.60
2018-12-20T13:21:35.635Z,80.70
2018-12-20T13:24:04.319Z,83.40
2018-12-20T13:26:32.683Z,83.70
2018-12-20T13:29:01.311Z,82.40
2018-12-20T13:31:29.919Z,83.80
2018-12-20T13:33:58.179Z,85.20
2018-12-20T13:36:26.523Z,84.60
2018-12-20T13:38:54.970Z,85.80
2018-12-20T13:41:23.516Z,85.10
2018-12-20T13:43:51.754Z,85.10
2018-12-20T13:46:20.031Z,85.30
2018-12-20T13:48:48.291Z,84.90
2018-12-20T13:51:16.542Z,85.10
2018-12-20T13:53:44.828Z,85.50
2018-12-20T13:56:13.172Z,85.80
2018-12-20T13:58:41.419Z,84.80
2018-12-20T14:01:09.955Z,84.50
2018-12-20T14:03:38.197Z,85.40
2018-12-20T14:06:06.451Z,85.40
2018-12-20T14:08:34.806Z,86.50
2018-12-20T14:11:03.120Z,85.70
2018-12-20T14:13:31.376Z,86.30
2018-12-20T14:16:00.006Z,86.20
2018-12-20T14:18:31.116Z,87.80
2018-12-20T14:20:58.510Z,88.70
2018-12-20T14:23:27.275Z,89.30
2018-12-20T14:25:55.555Z,89.90
2018-12-20T14:28:23.846Z,89.30
2018-12-20T14:30:52.139Z,89.20
2018-12-20T14:33:20.399Z,88.40
2018-12-20T14:35:48.655Z,87.60
2018-12-20T14:38:16.937Z,87.60
2018-12-20T14:40:45.182Z,87.10
2018-12-20T14:43:13.434Z,88.00
2018-12-20T14:45:41.990Z,87.30
2018-12-20T14:48:12.342Z,86.40
2018-12-20T14:50:40.607Z,86.30
2018-12-20T14:53:08.901Z,87.10
2018-12-20T14:55:37.158Z,86.80
2018-12-20T14:58:05.425Z,87.10
2018-12-20T15:00:33.699Z,87.10
2018-12-20T15:03:01.957Z,87.60
2018-12-20T15:05:30.206Z,87.50
2018-12-20T15:07:58.570Z,87.60
2018-12-20T15:10:26.826Z,87.10
2018-12-20T15:12:55.085Z,88.30
2018-12-20T15:15:23.363Z,88.40
2018-12-20T15:17:51.608Z,88.30
2018-12-20T15:20:19.867Z,88.70
2018-12-20T15:22:48.354Z,89.50
2018-12-20T15:25:16.610Z,89.60
2018-12-20T15:27:45.083Z,89.60
2018-12-20T15:30:13.639Z,90.30
2018-12-20T15:32:41.895Z,90.00
2018-12-20T15:35:10.159Z,90.30
2018-12-20T15:37:38.447Z,90.10
2018-12-20T15:40:08.027Z,90.80
2018-12-20T15:42:36.373Z,90.80
2018-12-20T15:45:06.306Z,90.40
2018-12-20T15:47:34.593Z,90.70
2018-12-20T15:50:03.618Z,91.10
2018-12-20T15:52:31.997Z,90.60
2018-12-20T15:55:00.435Z,90.80
2018-12-20T15:57:28.696Z,90.80
2018-12-20T15:59:56.959Z,90.70
2018-12-20T16:02:25.422Z,91.00
2018-12-20T16:04:53.716Z,91.20
2018-12-20T16:07:22.070Z,91.40
2018-12-20T16:09:50.787Z,91.90
2018-12-20T16:12:19.525Z,92.30
2018-12-20T16:14:48.071Z,91.40
2018-12-20T16:17:16.359Z,91.70
2018-12-20T16:19:44.701Z,91.60
2018-12-20T16:22:13.272Z,91.00
2018-12-20T16:24:41.571Z,90.90
2018-12-20T16:27:11.282Z,91.70
2018-12-20T16:29:40.001Z,91.50
2018-12-20T16:32:08.446Z,91.20
2018-12-20T16:34:36.722Z,91.00
2018-12-20T16:37:05.593Z,91.30
2018-12-20T16:39:36.056Z,91.40
2018-12-20T16:42:04.425Z,91.60
2018-12-20T16:44:32.732Z,91.50
2018-12-20T16:47:01.198Z,91.70
2018-12-20T16:49:31.478Z,92.10
2018-12-20T16:51:59.815Z,92.70
2018-12-20T16:54:29.074Z,92.70
2018-12-20T16:56:57.645Z,92.50
2018-12-20T16:59:26.535Z,92.10
2018-12-20T17:01:55.847Z,92.30
2018-12-20T17:04:25.123Z,92.70
2018-12-20T17:06:53.447Z,92.70
2018-12-20T17:09:21.718Z,92.80
2018-12-20T17:11:50.188Z,92.50
2018-12-20T17:14:19.676Z,92.40
2018-12-20T17:16:49.099Z,93.10
2018-12-20T17:19:22.136Z,93.10
2018-12-20T17:21:49.424Z,93.00
2018-12-20T17:24:18.831Z,93.30
2018-12-20T17:26:49.066Z,93.60
2018-12-20T17:29:17.901Z,92.90
2018-12-20T17:31:47.551Z,93.20
2018-12-20T17:34:16.967Z,92.60
2018-12-20T17:36:45.400Z,92.50
2018-12-20T17:39:13.815Z,92.30
2018-12-20T17:41:42.070Z,92.90
2018-12-20T17:44:10.596Z,93.00
2018-12-20T17:46:38.958Z,93.10
2018-12-20T17:49:07.567Z,92.10
2018-12-20T17:51:35.969Z,92.40
2018-12-20T17:54:04.362Z,92.70
2018-12-20T17:56:33.801Z,92.60
2018-12-20T17:59:03.559Z,92.50
2018-12-20T18:01:31.906Z,92.80
2018-12-20T18:04:00.283Z,92.80
2018-12-20T18:06:28.770Z,93.70
2018-12-20T18:08:57.986Z,92.80
2018-12-20T18:11:26.346Z,92.90
2018-12-20T18:13:55.057Z,93.10
2018-12-20T18:16:23.424Z,93.10
2018-12-20T18:18:51.674Z,92.60
2018-12-20T18:21:21.133Z,92.50
2018-12-20T18:23:50.276Z,92.30
2018-12-20T18:26:18.590Z,92.80
2018-12-20T18:28:47.476Z,92.70
2018-12-20T18:31:16.162Z,93.10
2018-12-20T18:33:44.526Z,93.00
2018-12-20T18:36:13.022Z,93.00
2018-12-20T18:38:41.448Z,93.20
2018-12-20T18:41:09.735Z,92.60
2018-12-20T18:43:38.215Z,92.50
2018-12-20T18:46:07.654Z,92.70
2018-12-20T18:48:40.123Z,92.30
2018-12-20T18:51:08.402Z,91.90
2018-12-20T18:53:36.798Z,92.10
2018-12-20T18:56:05.259Z,92.80
2018-12-20T18:58:33.560Z,92.50
2018-12-20T19:01:01.919Z,93.00
2018-12-20T19:03:30.364Z,92.80
2018-12-20T19:05:59.599Z,92.30
2018-12-20T19:08:27.861Z,91.90
2018-12-20T19:10:57.394Z,93.00
2018-12-20T19:13:25.798Z,92.80
2018-12-20T19:15:55.315Z,93.20
2018-12-20T19:18:23.682Z,92.80
2018-12-20T19:20:56.015Z,93.30
2018-12-20T19:23:24.435Z,92.90
2018-12-20T19:25:54.002Z,92.70
2018-12-20T19:28:22.691Z,92.60
2018-12-20T19:30:51.446Z,92.70
2018-12-20T19:33:19.767Z,93.30
2018-12-20T19:35:51.832Z,93.60
2018-12-20T19:38:26.958Z,93.80
2018-12-20T19:40:55.404Z,93.60
2018-12-20T19:43:24.652Z,93.40
2018-12-20T19:45:53.151Z,93.40
2018-12-20T19:48:21.587Z,93.60
2018-12-20T19:50:49.826Z,93.20
2018-12-20T19:53:18.354Z,93.20
2018-12-20T19:55:47.042Z,93.80
2018-12-20T19:58:15.293Z,93.60
2018-12-20T20:00:43.630Z,93.00
2018-12-20T20:03:12.069Z,93.10
2018-12-20T20:05:40.447Z,93.10
2018-12-20T20:08:09.467Z,94.80
2018-12-20T20:10:37.734Z,94.20
2018-12-20T20:13:18.855Z,94.90
2018-12-20T20:15:41.259Z,94.90
2018-12-20T20:18:12.735Z,95.20
2018-12-20T20:20:46.933Z,94.80
2018-12-20T20:23:16.684Z,94.80
2018-12-20T20:25:44.996Z,95.10
2018-12-20T20:28:13.294Z,95.00
2018-12-20T20:30:41.695Z,95.00
2018-12-20T20:33:16.073Z,94.50
2018-12-20T20:35:44.539Z,94.20
2018-12-20T20:38:12.947Z,94.40
2018-12-20T20:40:41.329Z,93.70
2018-12-20T20:43:09.907Z,93.10
2018-12-20T20:45:39.311Z,92.80
2018-12-20T20:48:11.411Z,93.20
2018-12-20T20:50:39.775Z,93.10
2018-12-20T20:53:08.142Z,93.30
2018-12-20T20:55:36.559Z,93.30
2018-12-20T20:58:05.818Z,93.40
2018-12-20T21:00:34.202Z,93.50
2018-12-20T21:03:08.498Z,93.70
2018-12-20T21:05:36.791Z,93.40
2018-12-20T21:08:05.057Z,94.00
2018-12-20T21:10:33.330Z,93.90
2018-12-20T21:13:01.612Z,94.00
2018-12-20T21:15:30.002Z,93.90
2018-12-20T21:17:58.286Z,94.20
2018-12-20T21:20:30.712Z,93.40
2018-12-20T21:22:59.234Z,93.90
2018-12-20T21:25:27.525Z,94.10
2018-12-20T21:27:56.014Z,94.00
2018-12-20T21:30:24.305Z,93.60
2018-12-20T21:32:52.653Z,93.90
2018-12-20T21:35:21.095Z,93.80
2018-12-20T21:37:49.449Z,94.00
2018-12-20T21:40:19.897Z,93.30
2018-12-20T21:42:48.508Z,94.20
2018-12-20T21:45:17.093Z,94.10
2018-12-20T21:47:45.396Z,94.60
2018-12-20T21:50:13.954Z,94.60
2018-12-20T21:52:42.475Z,95.70
2018-12-20T21:55:10.735Z,95.60
2018-12-20T21:57:39.205Z,95.20
2018-12-20T22:00:09.464Z,94.90
2018-12-20T22:02:37.811Z,94.70
2018-12-20T22:05:08.035Z,94.50
2018-12-20T22:07:36.519Z,94.10
2018-12-20T22:10:05.832Z,94.10
2018-12-20T22:12:34.090Z,93.70
2018-12-20T22:15:02.661Z,93.30
2018-12-20T22:17:30.910Z,93.40
2018-12-20T22:19:59.167Z,93.30
2018-12-20T22:22:27.444Z,93.50
2018-12-20T22:24:55.699Z,93.60
2018-12-20T22:27:23.953Z,93.70
2018-12-20T22:29:52.730Z,94.10
2018-12-20T22:32:20.991Z,93.70
2018-12-20T22:34:49.256Z,93.30
2018-12-20T22:37:17.854Z,93.40
2018-12-20T22:39:47.228Z,92.90
2018-12-20T22:42:15.879Z,93.50
2018-12-20T22:44:44.147Z,93.90
2018-12-20T22:47:12.415Z,94.10
2018-12-20T22:49:40.877Z,94.40
2018-12-20T22:52:09.612Z,94.40
2018-12-20T22:54:37.862Z,93.80
2018-12-20T22:57:06.455Z,94.10
2018-12-20T22:59:34.743Z,94.30
2018-12-20T23:02:03.357Z,94.50
2018-12-20T23:04:32.497Z,93.90
2018-12-20T23:07:00.779Z,94.00
2018-12-20T23:09:29.035Z,94.10
2018-12-20T23:11:57.290Z,93.80
2018-12-20T23:14:25.816Z,93.50
2018-12-20T23:16:54.111Z,93.70
2018-12-20T23:19:22.533Z,93.90
2018-12-20T23:21:50.818Z,93.30
2018-12-20T23:24:19.240Z,93.00
2018-12-20T23:26:47.523Z,92.50
2018-12-20T23:29:15.806Z,92.80
2018-12-20T23:31:44.058Z,92.60
2018-12-20T23:34:12.318Z,92.10
2018-12-20T23:36:40.874Z,92.00
2018-12-20T23:39:09.546Z,92.00
2018-12-20T23:41:37.810Z,91.50
2018-12-20T23:44:06.103Z,91.70
2018-12-20T23:46:34.380Z,92.00
2018-12-20T23:49:02.642Z,92.30
2018-12-20T23:51:31.126Z,92.30
2018-12-20T23:53:59.382Z,91.90
2018-12-20T23:56:27.654Z,92.50
2018-12-20T23:58:56.331Z,92.40
